KUIL/UIL METAR and TAF weather

Enter ICAO airport designator
Station Type Date Time Source
KUIL METAR 2019/08/20 09:53 UTC NOAA

KUIL 200953Z AUTO 00000KT 10SM CLR 10/09 A2995 RMK AO2 SLP142 T01000089 $


Station Type Date Time Source
KUIL Decoded METAR 2019/08/20 09:53 UTC NOAA

QUILLAYUTE STATE AIRPORT, WA, United States (KUIL) 47-56N 124-34W 54M
Aug 20, 2019 - 05:53 AM EDT / 2019.08.20 0953 UTC
Wind: Calm:0
Visibility: 10 mile(s):0
Sky conditions: clear
Temperature: 50.0 F (10.0 C)
Dew Point: 48.0 F (8.9 C)
Relative Humidity: 92%
Pressure (altimeter): 29.95 in. Hg (1014 hPa)
ob: KUIL 200953Z AUTO 00000KT 10SM CLR 10/09 A2995 RMK AO2 SLP142 T01000089
cycle: 10

Station Type Date Time Source
KUIL TAF UTC NOAA

Error!

Example: see airport list